الصفحة الرئيسية
METAR-TAF:

METAR-TAF

مطار :

مطار ماكاو الدولي

ماكاو, جمهورية الصين الشعبية

دائرة عرض: 22-10N, خط طول: 113-34E, ارتفاع: 114 متر

مراقبة الطقس الحالي

تاريخ ووقت الإصدار 42 دقيقة قبل الساعة 02:30UTC
ريح 4 عقدة من الشرق, الاتجاه يتراوح بين الشمال الشرقي و الجنوب
درجة الحرارة 31°درجة مئوية
الرطوبة 79%
ضغط 1006 hPa
الرؤية 10 كم أو أكثر
غيوم قليلة على ارتفاع 1500 قدم

METAR: VMMC 080230Z 08004KT 040V190 9999 FEW015 31/27 Q1006 NOSIG

زمن: 11:12 (03:12 UTC)

توقعات

تاريخ ووقت الإصدار 4ساعات و 12 دقيقة قبل الساعة 23:00UTC
التوقعات صالحة من08 الساعة 00 UTC إلى 09 الساعة 06 UTC
ريح 8 عقدة من الشرق/الجنوب الشرقي
الرؤية 10 كم أو أكثر
غيوم قليلة على ارتفاع 1500 قدم

TAF: VMMC 072300Z 0800/0906 11008KT 9999 FEW015

أرصاد الطقس والتوقعات من أكثر من 4000 مطار (تقارير الطقس للمطار METAR والتنبؤ بالطقس بالمطارTAF).

المحطات المتاحة هي النقط الصفراء والحمراء على الخريطة.

حرك المؤشر فوق النقطة لمعرفة اسم المحطة.

ثم انقر لمعرفة أرصاد وتوقعات الطقس.

لتغيير الخارطة: اضغط على الأزرار الخضراء مع رمز الصليب الأسود للتكبير. على الزر الأخضر مع شرطة للتصغير، أو على الأسهم الخضراء للخرائط المجاورة.


METAR-TAF: